sensor_id;sensor_type;location;lat;lon;timestamp;temperature;humidity
5723;DHT22;2886;49.722;8.612;2022-10-16T00:00:57;16.00;99.90
5723;DHT22;2886;49.722;8.612;2022-10-16T00:03:23;15.90;99.90
5723;DHT22;2886;49.722;8.612;2022-10-16T00:05:48;16.00;99.90
5723;DHT22;2886;49.722;8.612;2022-10-16T00:08:14;15.90;99.90
5723;DHT22;2886;49.722;8.612;2022-10-16T00:10:40;15.90;99.90
5723;DHT22;2886;49.722;8.612;2022-10-16T00:13:06;15.90;99.90
5723;DHT22;2886;49.722;8.612;2022-10-16T00:15:36;15.80;99.90
5723;DHT22;2886;49.722;8.612;2022-10-16T00:18:03;15.80;99.90
5723;DHT22;2886;49.722;8.612;2022-10-16T00:20:29;15.80;99.90
5723;DHT22;2886;49.722;8.612;2022-10-16T00:22:56;15.70;99.90
5723;DHT22;2886;49.722;8.612;2022-10-16T00:25:23;15.70;99.90
5723;DHT22;2886;49.722;8.612;2022-10-16T00:27:48;15.70;99.90
5723;DHT22;2886;49.722;8.612;2022-10-16T00:30:14;15.70;99.90
5723;DHT22;2886;49.722;8.612;2022-10-16T00:32:40;15.70;99.90
5723;DHT22;2886;49.722;8.612;2022-10-16T00:35:06;15.70;99.90
5723;DHT22;2886;49.722;8.612;2022-10-16T00:37:32;15.70;99.90
5723;DHT22;2886;49.722;8.612;2022-10-16T00:39:57;15.70;99.90
5723;DHT22;2886;49.722;8.612;2022-10-16T00:42:23;15.70;99.90
5723;DHT22;2886;49.722;8.612;2022-10-16T00:44:51;15.70;99.90
5723;DHT22;2886;49.722;8.612;2022-10-16T00:49:50;15.70;99.90
5723;DHT22;2886;49.722;8.612;2022-10-16T00:52:17;15.80;99.90
5723;DHT22;2886;49.722;8.612;2022-10-16T00:54:44;15.80;99.90
5723;DHT22;2886;49.722;8.612;2022-10-16T00:57:11;15.80;99.90
5723;DHT22;2886;49.722;8.612;2022-10-16T00:59:41;15.90;99.90
5723;DHT22;2886;49.722;8.612;2022-10-16T01:02:11;15.90;99.90
5723;DHT22;2886;49.722;8.612;2022-10-16T01:04:46;15.90;99.90
5723;DHT22;2886;49.722;8.612;2022-10-16T01:07:41;15.90;99.90
5723;DHT22;2886;49.722;8.612;2022-10-16T01:10:30;15.90;99.90
5723;DHT22;2886;49.722;8.612;2022-10-16T01:13:07;16.00;99.90
5723;DHT22;2886;49.722;8.612;2022-10-16T01:15:52;16.00;99.90
5723;DHT22;2886;49.722;8.612;2022-10-16T01:18:39;16.00;99.90
5723;DHT22;2886;49.722;8.612;2022-10-16T01:21:32;16.00;99.90
5723;DHT22;2886;49.722;8.612;2022-10-16T01:32:18;16.10;99.90
5723;DHT22;2886;49.722;8.612;2022-10-16T01:34:51;16.10;99.90
5723;DHT22;2886;49.722;8.612;2022-10-16T01:37:27;16.10;99.90
5723;DHT22;2886;49.722;8.612;2022-10-16T01:39:58;16.00;99.90
5723;DHT22;2886;49.722;8.612;2022-10-16T01:42:33;16.10;99.90
5723;DHT22;2886;49.722;8.612;2022-10-16T01:45:01;16.10;99.90
5723;DHT22;2886;49.722;8.612;2022-10-16T01:47:30;16.10;99.90
5723;DHT22;2886;49.722;8.612;2022-10-16T01:49:58;16.10;99.90
5723;DHT22;2886;49.722;8.612;2022-10-16T01:52:26;16.10;99.90
5723;DHT22;2886;49.722;8.612;2022-10-16T01:54:55;16.10;99.90
5723;DHT22;2886;49.722;8.612;2022-10-16T01:57:24;16.10;99.90
5723;DHT22;2886;49.722;8.612;2022-10-16T01:59:54;16.10;99.90
5723;DHT22;2886;49.722;8.612;2022-10-16T02:02:22;16.10;99.90
5723;DHT22;2886;49.722;8.612;2022-10-16T02:04:57;16.10;99.90
5723;DHT22;2886;49.722;8.612;2022-10-16T02:07:24;16.10;99.90
5723;DHT22;2886;49.722;8.612;2022-10-16T02:09:50;16.10;99.90
5723;DHT22;2886;49.722;8.612;2022-10-16T02:12:24;16.10;99.90
5723;DHT22;2886;49.722;8.612;2022-10-16T02:14:51;16.10;99.90
5723;DHT22;2886;49.722;8.612;2022-10-16T02:17:18;16.10;99.90
5723;DHT22;2886;49.722;8.612;2022-10-16T02:19:46;16.10;99.90
5723;DHT22;2886;49.722;8.612;2022-10-16T02:22:21;16.10;99.90
5723;DHT22;2886;49.722;8.612;2022-10-16T02:25:09;16.10;99.90
5723;DHT22;2886;49.722;8.612;2022-10-16T02:27:42;16.10;99.90
5723;DHT22;2886;49.722;8.612;2022-10-16T02:32:51;16.10;99.90
5723;DHT22;2886;49.722;8.612;2022-10-16T02:35:20;16.10;99.90
5723;DHT22;2886;49.722;8.612;2022-10-16T02:37:48;16.10;99.90
5723;DHT22;2886;49.722;8.612;2022-10-16T02:40:14;16.00;99.90
5723;DHT22;2886;49.722;8.612;2022-10-16T02:42:41;16.10;99.90
5723;DHT22;2886;49.722;8.612;2022-10-16T02:45:08;16.10;99.90
5723;DHT22;2886;49.722;8.612;2022-10-16T02:47:34;16.10;99.90
5723;DHT22;2886;49.722;8.612;2022-10-16T02:50:00;16.10;99.90
5723;DHT22;2886;49.722;8.612;2022-10-16T02:52:26;16.10;99.90
5723;DHT22;2886;49.722;8.612;2022-10-16T02:54:52;16.10;99.90
5723;DHT22;2886;49.722;8.612;2022-10-16T02:57:18;16.10;99.90
5723;DHT22;2886;49.722;8.612;2022-10-16T02:59:44;16.20;99.90
5723;DHT22;2886;49.722;8.612;2022-10-16T03:02:10;16.10;99.90
5723;DHT22;2886;49.722;8.612;2022-10-16T03:04:36;16.20;99.90
5723;DHT22;2886;49.722;8.612;2022-10-16T03:07:02;16.20;99.90
5723;DHT22;2886;49.722;8.612;2022-10-16T03:09:28;16.20;99.90
5723;DHT22;2886;49.722;8.612;2022-10-16T03:11:54;16.20;99.90
5723;DHT22;2886;49.722;8.612;2022-10-16T03:14:20;16.20;99.90
5723;DHT22;2886;49.722;8.612;2022-10-16T03:16:46;16.20;99.90
5723;DHT22;2886;49.722;8.612;2022-10-16T03:19:11;16.30;99.90
5723;DHT22;2886;49.722;8.612;2022-10-16T03:21:37;16.30;99.90
5723;DHT22;2886;49.722;8.612;2022-10-16T03:24:03;16.30;99.90
5723;DHT22;2886;49.722;8.612;2022-10-16T03:26:29;16.30;99.90
5723;DHT22;2886;49.722;8.612;2022-10-16T03:28:54;16.30;99.90
5723;DHT22;2886;49.722;8.612;2022-10-16T03:31:21;16.30;99.90
5723;DHT22;2886;49.722;8.612;2022-10-16T03:33:47;16.30;99.90
5723;DHT22;2886;49.722;8.612;2022-10-16T03:36:12;16.30;99.90
5723;DHT22;2886;49.722;8.612;2022-10-16T03:38:38;16.30;99.90
5723;DHT22;2886;49.722;8.612;2022-10-16T03:41:04;16.40;99.90
5723;DHT22;2886;49.722;8.612;2022-10-16T03:43:29;16.40;99.90
5723;DHT22;2886;49.722;8.612;2022-10-16T03:45:55;16.40;99.90
5723;DHT22;2886;49.722;8.612;2022-10-16T03:48:21;16.30;99.90
5723;DHT22;2886;49.722;8.612;2022-10-16T03:50:46;16.40;99.90
5723;DHT22;2886;49.722;8.612;2022-10-16T03:53:14;16.40;99.90
5723;DHT22;2886;49.722;8.612;2022-10-16T03:55:42;16.30;99.90
5723;DHT22;2886;49.722;8.612;2022-10-16T03:58:08;16.30;99.90
5723;DHT22;2886;49.722;8.612;2022-10-16T04:00:34;16.40;99.90
5723;DHT22;2886;49.722;8.612;2022-10-16T04:03:00;16.30;99.90
5723;DHT22;2886;49.722;8.612;2022-10-16T04:05:26;16.40;99.90
5723;DHT22;2886;49.722;8.612;2022-10-16T04:07:52;16.40;99.90
5723;DHT22;2886;49.722;8.612;2022-10-16T04:10:18;16.40;99.90
5723;DHT22;2886;49.722;8.612;2022-10-16T04:12:44;16.40;99.90
5723;DHT22;2886;49.722;8.612;2022-10-16T04:15:10;16.30;99.90
5723;DHT22;2886;49.722;8.612;2022-10-16T04:17:36;16.30;99.90
5723;DHT22;2886;49.722;8.612;2022-10-16T04:20:02;16.30;99.90
5723;DHT22;2886;49.722;8.612;2022-10-16T04:22:27;16.40;99.90
5723;DHT22;2886;49.722;8.612;2022-10-16T04:24:53;16.30;99.90
5723;DHT22;2886;49.722;8.612;2022-10-16T04:27:19;16.30;99.90
5723;DHT22;2886;49.722;8.612;2022-10-16T04:29:45;16.30;99.90
5723;DHT22;2886;49.722;8.612;2022-10-16T04:32:10;16.30;99.90
5723;DHT22;2886;49.722;8.612;2022-10-16T04:34:36;16.30;99.90
5723;DHT22;2886;49.722;8.612;2022-10-16T04:37:03;16.30;99.90
5723;DHT22;2886;49.722;8.612;2022-10-16T04:39:29;16.20;99.90
5723;DHT22;2886;49.722;8.612;2022-10-16T04:41:54;16.20;99.90
5723;DHT22;2886;49.722;8.612;2022-10-16T04:44:20;16.20;99.90
5723;DHT22;2886;49.722;8.612;2022-10-16T04:46:46;16.20;99.90
5723;DHT22;2886;49.722;8.612;2022-10-16T04:49:11;16.20;99.90
5723;DHT22;2886;49.722;8.612;2022-10-16T04:51:37;16.30;99.90
5723;DHT22;2886;49.722;8.612;2022-10-16T04:54:02;16.30;99.90
5723;DHT22;2886;49.722;8.612;2022-10-16T04:56:28;16.30;99.90
5723;DHT22;2886;49.722;8.612;2022-10-16T04:58:54;16.30;99.90
5723;DHT22;2886;49.722;8.612;2022-10-16T05:01:20;16.30;99.90
5723;DHT22;2886;49.722;8.612;2022-10-16T05:03:45;16.20;99.90
5723;DHT22;2886;49.722;8.612;2022-10-16T05:06:11;16.20;99.90
5723;DHT22;2886;49.722;8.612;2022-10-16T05:08:37;16.20;99.90
5723;DHT22;2886;49.722;8.612;2022-10-16T05:11:02;16.20;99.90
5723;DHT22;2886;49.722;8.612;2022-10-16T05:13:28;16.20;99.90
5723;DHT22;2886;49.722;8.612;2022-10-16T05:15:54;16.10;99.90
5723;DHT22;2886;49.722;8.612;2022-10-16T05:18:20;16.10;99.90
5723;DHT22;2886;49.722;8.612;2022-10-16T05:20:45;16.10;99.90
5723;DHT22;2886;49.722;8.612;2022-10-16T05:23:11;16.10;99.90
5723;DHT22;2886;49.722;8.612;2022-10-16T05:25:37;16.10;99.90
5723;DHT22;2886;49.722;8.612;2022-10-16T05:28:03;16.20;99.90
5723;DHT22;2886;49.722;8.612;2022-10-16T05:30:29;16.20;99.90
5723;DHT22;2886;49.722;8.612;2022-10-16T05:32:55;16.20;99.90
5723;DHT22;2886;49.722;8.612;2022-10-16T05:35:20;16.20;99.90
5723;DHT22;2886;49.722;8.612;2022-10-16T05:37:47;16.20;99.90
5723;DHT22;2886;49.722;8.612;2022-10-16T05:40:13;16.20;99.90
5723;DHT22;2886;49.722;8.612;2022-10-16T05:42:40;16.20;99.90
5723;DHT22;2886;49.722;8.612;2022-10-16T05:45:07;16.20;99.90
5723;DHT22;2886;49.722;8.612;2022-10-16T05:47:33;16.10;99.90
5723;DHT22;2886;49.722;8.612;2022-10-16T05:49:59;16.20;99.90
5723;DHT22;2886;49.722;8.612;2022-10-16T05:52:26;16.20;99.90
5723;DHT22;2886;49.722;8.612;2022-10-16T05:54:51;16.20;99.90
5723;DHT22;2886;49.722;8.612;2022-10-16T05:57:17;16.20;99.90
5723;DHT22;2886;49.722;8.612;2022-10-16T05:59:42;16.20;99.90
5723;DHT22;2886;49.722;8.612;2022-10-16T06:02:12;16.30;99.90
5723;DHT22;2886;49.722;8.612;2022-10-16T06:04:38;16.40;99.90
5723;DHT22;2886;49.722;8.612;2022-10-16T06:07:03;16.30;99.90
5723;DHT22;2886;49.722;8.612;2022-10-16T06:09:29;16.30;99.90
5723;DHT22;2886;49.722;8.612;2022-10-16T06:11:55;16.40;99.90
5723;DHT22;2886;49.722;8.612;2022-10-16T06:14:21;16.30;99.90
5723;DHT22;2886;49.722;8.612;2022-10-16T06:16:46;16.30;99.90
5723;DHT22;2886;49.722;8.612;2022-10-16T06:19:12;16.30;99.90
5723;DHT22;2886;49.722;8.612;2022-10-16T06:21:38;16.40;99.90
5723;DHT22;2886;49.722;8.612;2022-10-16T06:24:04;16.40;99.90
5723;DHT22;2886;49.722;8.612;2022-10-16T06:26:30;16.40;99.90
5723;DHT22;2886;49.722;8.612;2022-10-16T06:28:58;16.40;99.90
5723;DHT22;2886;49.722;8.612;2022-10-16T06:31:24;16.40;99.90
5723;DHT22;2886;49.722;8.612;2022-10-16T06:33:54;16.40;99.90
5723;DHT22;2886;49.722;8.612;2022-10-16T06:36:20;16.50;99.90
5723;DHT22;2886;49.722;8.612;2022-10-16T06:38:46;16.50;99.90
5723;DHT22;2886;49.722;8.612;2022-10-16T06:41:15;16.50;99.90
5723;DHT22;2886;49.722;8.612;2022-10-16T06:43:41;16.50;99.90
5723;DHT22;2886;49.722;8.612;2022-10-16T06:46:10;16.60;99.90
5723;DHT22;2886;49.722;8.612;2022-10-16T06:48:36;16.50;99.90
5723;DHT22;2886;49.722;8.612;2022-10-16T06:53:37;16.60;99.90
5723;DHT22;2886;49.722;8.612;2022-10-16T06:56:14;16.70;99.90
5723;DHT22;2886;49.722;8.612;2022-10-16T06:58:41;16.70;99.90
5723;DHT22;2886;49.722;8.612;2022-10-16T07:01:07;16.80;99.90
5723;DHT22;2886;49.722;8.612;2022-10-16T07:03:33;16.90;99.90
5723;DHT22;2886;49.722;8.612;2022-10-16T07:06:06;17.00;99.90
5723;DHT22;2886;49.722;8.612;2022-10-16T07:08:37;17.00;99.90
5723;DHT22;2886;49.722;8.612;2022-10-16T07:11:09;17.10;99.90
5723;DHT22;2886;49.722;8.612;2022-10-16T07:13:36;17.10;99.90
5723;DHT22;2886;49.722;8.612;2022-10-16T07:16:07;17.10;99.90
5723;DHT22;2886;49.722;8.612;2022-10-16T07:18:32;17.10;99.90
5723;DHT22;2886;49.722;8.612;2022-10-16T07:21:18;17.10;99.90
5723;DHT22;2886;49.722;8.612;2022-10-16T07:23:44;17.10;99.90
5723;DHT22;2886;49.722;8.612;2022-10-16T07:26:11;17.20;99.90
5723;DHT22;2886;49.722;8.612;2022-10-16T07:28:37;17.30;99.90
5723;DHT22;2886;49.722;8.612;2022-10-16T07:31:11;17.30;99.90
5723;DHT22;2886;49.722;8.612;2022-10-16T07:33:38;17.30;99.90
5723;DHT22;2886;49.722;8.612;2022-10-16T07:36:05;17.40;99.90
5723;DHT22;2886;49.722;8.612;2022-10-16T07:38:31;17.40;99.90
5723;DHT22;2886;49.722;8.612;2022-10-16T07:41:02;17.50;99.90
5723;DHT22;2886;49.722;8.612;2022-10-16T07:43:28;17.50;99.90
5723;DHT22;2886;49.722;8.612;2022-10-16T07:45:54;17.50;99.90
5723;DHT22;2886;49.722;8.612;2022-10-16T07:48:21;17.50;99.90
5723;DHT22;2886;49.722;8.612;2022-10-16T07:50:47;17.50;99.90
5723;DHT22;2886;49.722;8.612;2022-10-16T07:53:13;17.50;99.90
5723;DHT22;2886;49.722;8.612;2022-10-16T07:55:39;17.60;99.90
5723;DHT22;2886;49.722;8.612;2022-10-16T07:58:05;17.70;99.90
5723;DHT22;2886;49.722;8.612;2022-10-16T08:00:31;17.70;99.90
5723;DHT22;2886;49.722;8.612;2022-10-16T08:02:58;17.60;99.90
5723;DHT22;2886;49.722;8.612;2022-10-16T08:05:32;17.60;99.90
5723;DHT22;2886;49.722;8.612;2022-10-16T08:07:58;17.60;99.90
5723;DHT22;2886;49.722;8.612;2022-10-16T08:10:25;17.60;99.90
5723;DHT22;2886;49.722;8.612;2022-10-16T08:12:52;17.60;99.90
5723;DHT22;2886;49.722;8.612;2022-10-16T08:15:18;17.70;99.90
5723;DHT22;2886;49.722;8.612;2022-10-16T08:17:53;17.70;99.90
5723;DHT22;2886;49.722;8.612;2022-10-16T08:20:19;17.60;99.90
5723;DHT22;2886;49.722;8.612;2022-10-16T08:22:44;17.60;99.90
5723;DHT22;2886;49.722;8.612;2022-10-16T08:25:10;17.50;99.90
5723;DHT22;2886;49.722;8.612;2022-10-16T08:27:36;17.50;99.90
5723;DHT22;2886;49.722;8.612;2022-10-16T08:30:01;17.50;99.90
5723;DHT22;2886;49.722;8.612;2022-10-16T08:32:27;17.40;99.90
5723;DHT22;2886;49.722;8.612;2022-10-16T08:34:53;17.40;99.90
5723;DHT22;2886;49.722;8.612;2022-10-16T08:37:19;17.30;99.90
5723;DHT22;2886;49.722;8.612;2022-10-16T08:39:44;17.30;99.90
5723;DHT22;2886;49.722;8.612;2022-10-16T08:42:19;17.20;99.90
5723;DHT22;2886;49.722;8.612;2022-10-16T08:48:00;17.00;99.90
5723;DHT22;2886;49.722;8.612;2022-10-16T08:50:30;16.90;99.90
5723;DHT22;2886;49.722;8.612;2022-10-16T08:52:57;16.80;99.90
5723;DHT22;2886;49.722;8.612;2022-10-16T08:55:43;16.70;99.90
5723;DHT22;2886;49.722;8.612;2022-10-16T08:58:21;16.60;99.90
5723;DHT22;2886;49.722;8.612;2022-10-16T09:01:01;16.60;99.90
5723;DHT22;2886;49.722;8.612;2022-10-16T09:03:45;16.50;99.90
5723;DHT22;2886;49.722;8.612;2022-10-16T09:06:35;16.40;99.90
5723;DHT22;2886;49.722;8.612;2022-10-16T09:19:58;16.90;99.90
5723;DHT22;2886;49.722;8.612;2022-10-16T09:22:27;17.00;99.90
5723;DHT22;2886;49.722;8.612;2022-10-16T09:24:57;17.00;99.90
5723;DHT22;2886;49.722;8.612;2022-10-16T09:27:25;17.10;99.90
5723;DHT22;2886;49.722;8.612;2022-10-16T09:29:51;17.20;99.90
5723;DHT22;2886;49.722;8.612;2022-10-16T09:32:21;17.20;99.90
5723;DHT22;2886;49.722;8.612;2022-10-16T09:34:50;17.30;99.90
5723;DHT22;2886;49.722;8.612;2022-10-16T09:37:19;17.30;99.90
5723;DHT22;2886;49.722;8.612;2022-10-16T09:39:52;17.30;99.90
5723;DHT22;2886;49.722;8.612;2022-10-16T09:42:30;17.40;99.90
5723;DHT22;2886;49.722;8.612;2022-10-16T09:44:57;17.40;99.90
5723;DHT22;2886;49.722;8.612;2022-10-16T09:47:28;17.40;99.90
5723;DHT22;2886;49.722;8.612;2022-10-16T09:50:04;17.60;99.90
5723;DHT22;2886;49.722;8.612;2022-10-16T09:52:32;17.70;99.90
5723;DHT22;2886;49.722;8.612;2022-10-16T09:55:00;18.00;99.90
5723;DHT22;2886;49.722;8.612;2022-10-16T09:57:27;18.20;99.90
5723;DHT22;2886;49.722;8.612;2022-10-16T09:59:57;18.60;99.90
5723;DHT22;2886;49.722;8.612;2022-10-16T10:02:34;19.00;99.90
5723;DHT22;2886;49.722;8.612;2022-10-16T10:05:01;19.40;99.90
5723;DHT22;2886;49.722;8.612;2022-10-16T10:07:31;19.70;99.90
5723;DHT22;2886;49.722;8.612;2022-10-16T10:10:00;19.70;99.90
5723;DHT22;2886;49.722;8.612;2022-10-16T10:12:30;20.00;99.90
5723;DHT22;2886;49.722;8.612;2022-10-16T10:15:10;20.40;99.90
5723;DHT22;2886;49.722;8.612;2022-10-16T10:17:46;20.50;99.90
5723;DHT22;2886;49.722;8.612;2022-10-16T10:20:31;20.70;99.90
5723;DHT22;2886;49.722;8.612;2022-10-16T10:23:13;20.70;99.90
5723;DHT22;2886;49.722;8.612;2022-10-16T10:31:20;20.50;99.90
5723;DHT22;2886;49.722;8.612;2022-10-16T10:36:38;20.30;99.90
5723;DHT22;2886;49.722;8.612;2022-10-16T10:39:19;20.30;99.90
5723;DHT22;2886;49.722;8.612;2022-10-16T10:55:54;20.80;99.90
5723;DHT22;2886;49.722;8.612;2022-10-16T11:01:13;21.10;99.90
5723;DHT22;2886;49.722;8.612;2022-10-16T11:06:20;21.30;99.90
5723;DHT22;2886;49.722;8.612;2022-10-16T11:09:09;21.40;99.90
5723;DHT22;2886;49.722;8.612;2022-10-16T11:11:43;21.40;99.90
5723;DHT22;2886;49.722;8.612;2022-10-16T11:14:20;21.50;99.90
5723;DHT22;2886;49.722;8.612;2022-10-16T11:17:10;21.60;99.90
5723;DHT22;2886;49.722;8.612;2022-10-16T11:20:02;21.60;99.90
5723;DHT22;2886;49.722;8.612;2022-10-16T11:30:27;21.50;99.90
5723;DHT22;2886;49.722;8.612;2022-10-16T11:35:46;21.30;99.90
5723;DHT22;2886;49.722;8.612;2022-10-16T11:38:31;21.40;99.90
5723;DHT22;2886;49.722;8.612;2022-10-16T11:41:04;21.60;99.90
5723;DHT22;2886;49.722;8.612;2022-10-16T11:43:49;21.90;99.90
5723;DHT22;2886;49.722;8.612;2022-10-16T11:46:20;22.10;99.90
5723;DHT22;2886;49.722;8.612;2022-10-16T11:49:03;22.20;99.90
5723;DHT22;2886;49.722;8.612;2022-10-16T11:51:42;22.40;99.90
5723;DHT22;2886;49.722;8.612;2022-10-16T11:54:24;22.30;99.90
5723;DHT22;2886;49.722;8.612;2022-10-16T11:56:56;22.20;99.90
5723;DHT22;2886;49.722;8.612;2022-10-16T12:02:08;22.00;99.90
5723;DHT22;2886;49.722;8.612;2022-10-16T12:08:11;22.40;99.90
5723;DHT22;2886;49.722;8.612;2022-10-16T12:10:39;22.50;99.90
5723;DHT22;2886;49.722;8.612;2022-10-16T12:18:44;22.00;99.90
5723;DHT22;2886;49.722;8.612;2022-10-16T12:21:12;21.90;99.90
5723;DHT22;2886;49.722;8.612;2022-10-16T12:23:51;21.80;99.90
5723;DHT22;2886;49.722;8.612;2022-10-16T12:26:37;21.80;99.90
5723;DHT22;2886;49.722;8.612;2022-10-16T12:31:46;21.90;99.90
5723;DHT22;2886;49.722;8.612;2022-10-16T12:34:41;21.90;99.90
5723;DHT22;2886;49.722;8.612;2022-10-16T12:37:32;22.10;99.90
5723;DHT22;2886;49.722;8.612;2022-10-16T12:39:59;22.10;99.90
5723;DHT22;2886;49.722;8.612;2022-10-16T12:44:55;21.70;99.90
5723;DHT22;2886;49.722;8.612;2022-10-16T12:49:58;21.70;99.90
5723;DHT22;2886;49.722;8.612;2022-10-16T12:52:44;21.60;99.90
5723;DHT22;2886;49.722;8.612;2022-10-16T12:55:17;21.60;99.90
5723;DHT22;2886;49.722;8.612;2022-10-16T12:58:14;21.60;99.90
5723;DHT22;2886;49.722;8.612;2022-10-16T13:10:24;21.90;99.90
5723;DHT22;2886;49.722;8.612;2022-10-16T13:18:13;21.90;99.90
5723;DHT22;2886;49.722;8.612;2022-10-16T13:20:56;21.80;99.90
5723;DHT22;2886;49.722;8.612;2022-10-16T13:23:36;21.70;99.90
5723;DHT22;2886;49.722;8.612;2022-10-16T13:28:48;21.40;99.90
5723;DHT22;2886;49.722;8.612;2022-10-16T13:31:22;21.30;99.90
5723;DHT22;2886;49.722;8.612;2022-10-16T13:33:55;21.10;99.90
5723;DHT22;2886;49.722;8.612;2022-10-16T13:36:44;21.00;99.90
5723;DHT22;2886;49.722;8.612;2022-10-16T13:39:25;21.00;99.90
5723;DHT22;2886;49.722;8.612;2022-10-16T13:42:07;21.00;99.90
5723;DHT22;2886;49.722;8.612;2022-10-16T13:44:47;20.90;99.90
5723;DHT22;2886;49.722;8.612;2022-10-16T13:47:25;20.90;99.90
5723;DHT22;2886;49.722;8.612;2022-10-16T13:52:27;20.70;99.90
5723;DHT22;2886;49.722;8.612;2022-10-16T13:54:53;20.70;99.90
5723;DHT22;2886;49.722;8.612;2022-10-16T13:57:22;20.60;99.90
5723;DHT22;2886;49.722;8.612;2022-10-16T13:59:49;20.60;99.90
5723;DHT22;2886;49.722;8.612;2022-10-16T14:02:34;20.50;99.90
5723;DHT22;2886;49.722;8.612;2022-10-16T14:05:02;20.40;99.90
5723;DHT22;2886;49.722;8.612;2022-10-16T14:07:32;20.40;99.90
5723;DHT22;2886;49.722;8.612;2022-10-16T14:10:04;20.40;99.90
5723;DHT22;2886;49.722;8.612;2022-10-16T14:12:30;20.50;99.90
5723;DHT22;2886;49.722;8.612;2022-10-16T14:14:57;20.60;99.90
5723;DHT22;2886;49.722;8.612;2022-10-16T14:17:26;20.70;99.90
5723;DHT22;2886;49.722;8.612;2022-10-16T14:19:54;20.80;99.90
5723;DHT22;2886;49.722;8.612;2022-10-16T14:22:38;20.90;99.90
5723;DHT22;2886;49.722;8.612;2022-10-16T14:30:35;20.80;99.90
5723;DHT22;2886;49.722;8.612;2022-10-16T14:33:18;20.80;99.90
5723;DHT22;2886;49.722;8.612;2022-10-16T14:35:45;20.70;99.90
5723;DHT22;2886;49.722;8.612;2022-10-16T14:38:18;20.70;99.90
5723;DHT22;2886;49.722;8.612;2022-10-16T14:40:47;20.70;99.90
5723;DHT22;2886;49.722;8.612;2022-10-16T14:43:21;20.70;99.90
5723;DHT22;2886;49.722;8.612;2022-10-16T14:45:52;20.70;99.90
5723;DHT22;2886;49.722;8.612;2022-10-16T14:48:19;20.70;99.90
5723;DHT22;2886;49.722;8.612;2022-10-16T14:50:46;20.70;99.90
5723;DHT22;2886;49.722;8.612;2022-10-16T14:53:13;20.70;99.90
5723;DHT22;2886;49.722;8.612;2022-10-16T14:55:39;20.60;99.90
5723;DHT22;2886;49.722;8.612;2022-10-16T14:58:07;20.60;99.90
5723;DHT22;2886;49.722;8.612;2022-10-16T15:00:35;20.60;99.90
5723;DHT22;2886;49.722;8.612;2022-10-16T15:03:01;20.50;99.90
5723;DHT22;2886;49.722;8.612;2022-10-16T15:05:27;20.50;99.90
5723;DHT22;2886;49.722;8.612;2022-10-16T15:07:54;20.50;99.90
5723;DHT22;2886;49.722;8.612;2022-10-16T15:10:22;20.60;99.90
5723;DHT22;2886;49.722;8.612;2022-10-16T15:12:48;20.60;99.90
5723;DHT22;2886;49.722;8.612;2022-10-16T15:17:50;20.60;99.90
5723;DHT22;2886;49.722;8.612;2022-10-16T15:20:19;20.60;99.90
5723;DHT22;2886;49.722;8.612;2022-10-16T15:22:45;20.60;99.90
5723;DHT22;2886;49.722;8.612;2022-10-16T15:28:03;20.70;99.90
5723;DHT22;2886;49.722;8.612;2022-10-16T15:30:30;20.70;99.90
5723;DHT22;2886;49.722;8.612;2022-10-16T15:32:55;20.70;99.90
5723;DHT22;2886;49.722;8.612;2022-10-16T15:35:21;20.70;99.90
5723;DHT22;2886;49.722;8.612;2022-10-16T15:37:48;20.70;99.90
5723;DHT22;2886;49.722;8.612;2022-10-16T15:40:15;20.60;99.90
5723;DHT22;2886;49.722;8.612;2022-10-16T15:42:41;20.60;99.90
5723;DHT22;2886;49.722;8.612;2022-10-16T15:45:09;20.50;99.90
5723;DHT22;2886;49.722;8.612;2022-10-16T15:47:35;20.50;99.90
5723;DHT22;2886;49.722;8.612;2022-10-16T15:50:00;20.40;99.90
5723;DHT22;2886;49.722;8.612;2022-10-16T15:52:26;20.30;99.90
5723;DHT22;2886;49.722;8.612;2022-10-16T15:54:55;20.20;99.90
5723;DHT22;2886;49.722;8.612;2022-10-16T15:57:21;20.20;99.90
5723;DHT22;2886;49.722;8.612;2022-10-16T15:59:46;20.10;99.90
5723;DHT22;2886;49.722;8.612;2022-10-16T16:02:12;20.00;99.90
5723;DHT22;2886;49.722;8.612;2022-10-16T16:04:38;19.90;99.90
5723;DHT22;2886;49.722;8.612;2022-10-16T16:07:03;19.80;99.90
5723;DHT22;2886;49.722;8.612;2022-10-16T16:09:29;19.80;99.90
5723;DHT22;2886;49.722;8.612;2022-10-16T16:11:55;19.70;99.90
5723;DHT22;2886;49.722;8.612;2022-10-16T16:14:21;19.60;99.90
5723;DHT22;2886;49.722;8.612;2022-10-16T16:16:47;19.60;99.90
5723;DHT22;2886;49.722;8.612;2022-10-16T16:19:12;19.50;99.90
5723;DHT22;2886;49.722;8.612;2022-10-16T16:21:38;19.40;99.90
5723;DHT22;2886;49.722;8.612;2022-10-16T16:24:04;19.40;99.90
5723;DHT22;2886;49.722;8.612;2022-10-16T16:26:34;19.40;99.90
5723;DHT22;2886;49.722;8.612;2022-10-16T16:29:03;19.30;99.90
5723;DHT22;2886;49.722;8.612;2022-10-16T16:31:30;19.30;99.90
5723;DHT22;2886;49.722;8.612;2022-10-16T16:33:57;19.30;99.90
5723;DHT22;2886;49.722;8.612;2022-10-16T16:36:24;19.30;99.90
5723;DHT22;2886;49.722;8.612;2022-10-16T16:38:50;19.30;99.90
5723;DHT22;2886;49.722;8.612;2022-10-16T16:41:19;19.30;99.90
5723;DHT22;2886;49.722;8.612;2022-10-16T16:43:51;19.30;99.90
5723;DHT22;2886;49.722;8.612;2022-10-16T16:46:17;19.20;99.90
5723;DHT22;2886;49.722;8.612;2022-10-16T16:48:44;19.20;99.90
5723;DHT22;2886;49.722;8.612;2022-10-16T16:51:12;19.20;99.90
5723;DHT22;2886;49.722;8.612;2022-10-16T16:53:48;19.10;99.90
5723;DHT22;2886;49.722;8.612;2022-10-16T16:56:14;19.10;99.90
5723;DHT22;2886;49.722;8.612;2022-10-16T16:58:41;19.10;99.90
5723;DHT22;2886;49.722;8.612;2022-10-16T17:01:09;19.10;99.90
5723;DHT22;2886;49.722;8.612;2022-10-16T17:03:36;19.10;99.90
5723;DHT22;2886;49.722;8.612;2022-10-16T17:06:03;19.20;99.90
5723;DHT22;2886;49.722;8.612;2022-10-16T17:08:29;19.20;99.90
5723;DHT22;2886;49.722;8.612;2022-10-16T17:10:56;19.10;99.90
5723;DHT22;2886;49.722;8.612;2022-10-16T17:13:27;19.10;99.90
5723;DHT22;2886;49.722;8.612;2022-10-16T17:15:53;19.10;99.90
5723;DHT22;2886;49.722;8.612;2022-10-16T17:18:21;19.00;99.90
5723;DHT22;2886;49.722;8.612;2022-10-16T17:20:47;19.00;99.90
5723;DHT22;2886;49.722;8.612;2022-10-16T17:23:14;18.90;99.90
5723;DHT22;2886;49.722;8.612;2022-10-16T17:25:41;18.80;99.90
5723;DHT22;2886;49.722;8.612;2022-10-16T17:28:08;18.80;99.90
5723;DHT22;2886;49.722;8.612;2022-10-16T17:30:36;18.80;99.90
5723;DHT22;2886;49.722;8.612;2022-10-16T17:33:03;18.70;99.90
5723;DHT22;2886;49.722;8.612;2022-10-16T17:35:29;18.70;99.90
5723;DHT22;2886;49.722;8.612;2022-10-16T17:37:55;18.80;99.90
5723;DHT22;2886;49.722;8.612;2022-10-16T17:40:21;18.70;99.90
5723;DHT22;2886;49.722;8.612;2022-10-16T17:42:47;18.70;99.90
5723;DHT22;2886;49.722;8.612;2022-10-16T17:45:13;18.60;99.90
5723;DHT22;2886;49.722;8.612;2022-10-16T17:47:39;18.60;99.90
5723;DHT22;2886;49.722;8.612;2022-10-16T17:50:07;18.60;99.90
5723;DHT22;2886;49.722;8.612;2022-10-16T17:52:35;18.60;99.90
5723;DHT22;2886;49.722;8.612;2022-10-16T17:55:01;18.50;99.90
5723;DHT22;2886;49.722;8.612;2022-10-16T17:57:27;18.50;99.90
5723;DHT22;2886;49.722;8.612;2022-10-16T17:59:55;18.40;99.90
5723;DHT22;2886;49.722;8.612;2022-10-16T18:02:21;18.40;99.90
5723;DHT22;2886;49.722;8.612;2022-10-16T18:04:49;18.40;99.90
5723;DHT22;2886;49.722;8.612;2022-10-16T18:07:16;18.40;99.90
5723;DHT22;2886;49.722;8.612;2022-10-16T18:09:41;18.30;99.90
5723;DHT22;2886;49.722;8.612;2022-10-16T18:12:07;18.30;99.90
5723;DHT22;2886;49.722;8.612;2022-10-16T18:14:33;18.30;99.90